Time;durP1;ratioP1;P1;durP2;ratioP2;P2;SDS_P1;SDS_P2;PMS_P1;PMS_P2;Temp;Humidity;BMP_temperature;BMP_pressure;BME280_temperature;BME280_humidity;BME280_pressure;Samples;Min_cycle;Max_cycle;Signal;HPM_P1;HPM_P2
2022/10/02 00:02:18;;;;;;;8.18;1.75;;;;;;;;;;4963223;28;20030;-93
2022/10/02 00:05:00;;;;;;;11.60;2.25;;;;;;;;;;4979074;28;20023;-91
2022/10/02 00:07:29;;;;;;;10.45;2.22;;;;;;;;;;4966810;28;20038;-91
2022/10/02 00:09:58;;;;;;;12.57;2.33;;;;;;;;;;4980700;28;20026;-90
2022/10/02 00:12:25;;;;;;;13.88;2.25;;;;;;;;;;4968083;28;20042;-91
2022/10/02 00:14:54;;;;;;;8.73;2.22;;;;;;;;;;4960618;28;20023;-91
2022/10/02 00:17:22;;;;;;;11.57;2.15;;;;;;;;;;4981298;28;20026;-91
2022/10/02 00:19:52;;;;;;;9.38;2.17;;;;;;;;;;4965627;28;20502;-91
2022/10/02 00:22:21;;;;;;;7.75;1.90;;;;;;;;;;4960980;28;20107;-91
2022/10/02 00:24:55;;;;;;;13.65;1.92;;;;;;;;;;4969227;28;20089;-91
2022/10/02 00:27:44;;;;;;;23.23;3.42;;;;;;;;;;4967763;28;20034;-91
2022/10/02 00:30:12;;;;;;;10.35;2.72;;;;;;;;;;4965006;28;20030;-92
2022/10/02 00:33:08;;;;;;;12.93;2.93;;;;;;;;;;4668550;28;8285016;-91
2022/10/02 00:35:41;;;;;;;22.77;3.22;;;;;;;;;;4964069;28;20301;-92
2022/10/02 00:38:07;;;;;;;21.48;3.40;;;;;;;;;;4980372;28;20418;-91
2022/10/02 00:40:36;;;;;;;12.52;4.00;;;;;;;;;;4969316;28;20034;-92
2022/10/02 00:43:32;;;;;;;19.35;3.17;;;;;;;;;;4966460;28;20669;-91
2022/10/02 00:46:09;;;;;;;40.55;4.15;;;;;;;;;;4953846;28;20057;-92
2022/10/02 00:48:35;;;;;;;16.85;3.65;;;;;;;;;;4968416;28;20030;-92
2022/10/02 00:51:40;;;;;;;18.58;4.47;;;;;;;;;;4966346;28;20038;-92
2022/10/02 00:54:24;;;;;;;23.52;4.18;;;;;;;;;;4907321;29;20031;-92
2022/10/02 00:57:02;;;;;;;16.77;3.67;;;;;;;;;;4913064;29;20500;-92
2022/10/02 00:59:40;;;;;;;17.35;3.67;;;;;;;;;;4950751;28;20073;-92
2022/10/02 01:02:26;;;;;;;23.83;3.40;;;;;;;;;;4968457;28;20026;-91
2022/10/02 01:04:53;;;;;;;12.65;4.07;;;;;;;;;;4958567;28;20046;-92
2022/10/02 01:07:19;;;;;;;25.02;4.35;;;;;;;;;;4964158;28;20226;-91
2022/10/02 01:09:45;;;;;;;12.50;3.75;;;;;;;;;;4977810;28;20038;-90
2022/10/02 01:12:12;;;;;;;21.88;3.50;;;;;;;;;;4986799;28;20037;-90
2022/10/02 01:14:40;;;;;;;28.65;4.00;;;;;;;;;;4961596;28;20320;-92
2022/10/02 01:17:07;;;;;;;17.33;3.35;;;;;;;;;;4964626;28;20117;-90
2022/10/02 01:19:37;;;;;;;17.33;3.08;;;;;;;;;;4965407;28;20031;-91
2022/10/02 01:22:07;;;;;;;14.15;3.45;;;;;;;;;;4987933;28;20493;-91
2022/10/02 01:24:42;;;;;;;19.52;4.00;;;;;;;;;;4962746;28;20061;-91
2022/10/02 01:27:09;;;;;;;23.90;3.25;;;;;;;;;;4968357;28;20346;-91
2022/10/02 01:29:35;;;;;;;19.63;3.22;;;;;;;;;;4987490;28;20022;-91
2022/10/02 01:32:01;;;;;;;25.25;4.20;;;;;;;;;;4985881;28;20063;-90
2022/10/02 01:34:27;;;;;;;28.42;3.42;;;;;;;;;;4968573;28;20062;-90
2022/10/02 01:36:53;;;;;;;15.90;3.20;;;;;;;;;;4951660;28;20035;-91
2022/10/02 01:39:20;;;;;;;19.77;3.67;;;;;;;;;;4967537;28;20042;-90
2022/10/02 01:41:46;;;;;;;23.88;3.25;;;;;;;;;;4969268;28;20420;-91
2022/10/02 01:44:13;;;;;;;19.33;3.53;;;;;;;;;;4952019;28;20494;-90
2022/10/02 01:46:51;;;;;;;25.73;3.92;;;;;;;;;;4967052;28;20737;-90
2022/10/02 01:49:25;;;;;;;21.80;3.38;;;;;;;;;;4980557;28;20157;-90
2022/10/02 01:52:06;;;;;;;25.85;3.28;;;;;;;;;;4966783;28;20030;-90
2022/10/02 01:54:32;;;;;;;23.33;3.08;;;;;;;;;;4969291;28;20026;-90
2022/10/02 01:57:17;;;;;;;17.20;3.17;;;;;;;;;;4981052;28;20553;-90
2022/10/02 01:59:43;;;;;;;23.35;3.17;;;;;;;;;;4968580;28;20036;-89
2022/10/02 02:02:09;;;;;;;18.35;2.75;;;;;;;;;;4964989;28;20026;-91
2022/10/02 02:04:42;;;;;;;22.63;3.03;;;;;;;;;;4983212;28;20536;-91
2022/10/02 02:07:16;;;;;;;16.90;3.63;;;;;;;;;;4967311;28;20667;-90
2022/10/02 02:09:57;;;;;;;20.42;2.85;;;;;;;;;;4977212;28;20058;-90
2022/10/02 02:12:50;;;;;;;16.65;3.53;;;;;;;;;;4966136;28;20045;-90
2022/10/02 02:15:19;;;;;;;16.05;2.85;;;;;;;;;;4952583;28;20084;-89
2022/10/02 02:17:50;;;;;;;19.00;3.08;;;;;;;;;;4963935;28;20312;-91
2022/10/02 02:20:26;;;;;;;18.33;2.85;;;;;;;;;;4968494;28;20031;-90
2022/10/02 02:22:52;;;;;;;27.88;2.47;;;;;;;;;;4967712;28;20116;-90
2022/10/02 02:25:29;;;;;;;16.73;2.50;;;;;;;;;;4961367;28;20407;-90
2022/10/02 02:28:05;;;;;;;16.40;2.88;;;;;;;;;;4984265;28;20137;-90
2022/10/02 02:30:32;;;;;;;9.85;2.58;;;;;;;;;;4959564;28;20035;-90
2022/10/02 02:33:03;;;;;;;24.15;2.65;;;;;;;;;;4983923;28;20145;-90
2022/10/02 02:35:33;;;;;;;30.00;3.60;;;;;;;;;;4964768;28;20042;-90
2022/10/02 02:38:05;;;;;;;14.15;2.67;;;;;;;;;;4963691;28;20310;-90
2022/10/02 02:40:36;;;;;;;24.67;3.85;;;;;;;;;;4982007;28;20387;-90
2022/10/02 02:43:05;;;;;;;19.45;2.75;;;;;;;;;;4963223;28;20038;-90
2022/10/02 02:45:34;;;;;;;20.10;2.92;;;;;;;;;;4961007;28;20030;-90
2022/10/02 02:48:03;;;;;;;20.92;2.95;;;;;;;;;;4962221;28;20041;-90
2022/10/02 02:50:39;;;;;;;24.50;2.97;;;;;;;;;;4987091;28;20883;-90
2022/10/02 02:53:09;;;;;;;12.48;3.45;;;;;;;;;;4967889;28;20881;-91
2022/10/02 02:55:42;;;;;;;19.33;2.83;;;;;;;;;;4964155;28;20123;-91
2022/10/02 02:58:18;;;;;;;27.98;3.17;;;;;;;;;;4963468;28;20486;-90
2022/10/02 03:00:44;;;;;;;;;;;;;;;;;;4980038;28;20058;-89
2022/10/02 03:03:10;;;;;;;26.15;2.28;;;;;;;;;;4981928;28;19952;-90
2022/10/02 03:05:38;;;;;;;14.95;2.15;;;;;;;;;;4963356;28;20027;-90
2022/10/02 03:08:07;;;;;;;20.90;2.72;;;;;;;;;;4964829;28;20026;-91
2022/10/02 03:10:39;;;;;;;20.42;2.22;;;;;;;;;;4977366;28;20030;-91
2022/10/02 03:13:05;;;;;;;16.80;2.47;;;;;;;;;;4964861;28;20030;-91
2022/10/02 03:15:39;;;;;;;20.88;2.80;;;;;;;;;;4979199;28;20580;-90
2022/10/02 03:18:05;;;;;;;17.15;2.30;;;;;;;;;;4976032;28;20536;-90
2022/10/02 03:20:34;;;;;;;7.28;2.20;;;;;;;;;;4963130;28;20046;-91
2022/10/02 03:23:19;;;;;;;20.45;2.50;;;;;;;;;;4967735;28;20116;-91
2022/10/02 03:26:12;;;;;;;23.60;2.88;;;;;;;;;;4960404;28;20434;-90
2022/10/02 03:28:52;;;;;;;11.73;2.13;;;;;;;;;;4966353;28;20060;-90
2022/10/02 03:31:20;;;;;;;27.05;3.30;;;;;;;;;;4982031;28;20099;-90
2022/10/02 03:33:47;;;;;;;13.05;2.72;;;;;;;;;;4966616;28;20034;-91
2022/10/02 03:36:16;;;;;;;17.38;3.22;;;;;;;;;;4961317;28;20038;-90
2022/10/02 03:38:43;;;;;;;21.40;2.40;;;;;;;;;;4955612;28;20502;-90
2022/10/02 03:41:09;;;;;;;20.92;3.22;;;;;;;;;;4952150;28;20038;-92
2022/10/02 03:43:35;;;;;;;20.55;2.50;;;;;;;;;;4969477;28;20323;-91
2022/10/02 03:46:01;;;;;;;8.77;2.40;;;;;;;;;;4967950;28;20074;-92
2022/10/02 03:48:27;;;;;;;16.75;3.40;;;;;;;;;;4954159;28;20441;-91
2022/10/02 03:50:53;;;;;;;16.60;2.28;;;;;;;;;;4958203;28;20037;-92
2022/10/02 03:53:21;;;;;;;13.48;1.98;;;;;;;;;;4953914;28;20132;-91
2022/10/02 03:56:10;;;;;;;30.27;2.60;;;;;;;;;;4967266;28;20121;-91
2022/10/02 03:58:38;;;;;;;16.08;2.42;;;;;;;;;;4944160;28;20069;-91
2022/10/02 04:01:07;;;;;;;20.48;2.53;;;;;;;;;;4966301;28;20483;-91
2022/10/02 04:03:35;;;;;;;18.55;2.33;;;;;;;;;;4960860;28;20031;-93
2022/10/02 04:06:09;;;;;;;15.43;2.15;;;;;;;;;;4966512;28;20081;-92
2022/10/02 04:08:55;;;;;;;18.52;2.85;;;;;;;;;;4966226;28;20757;-92
2022/10/02 04:11:22;;;;;;;;;;;;;;;;;;4970624;28;20026;-92
2022/10/02 04:14:07;;;;;;;21.58;2.92;;;;;;;;;;4967169;28;19921;-92
2022/10/02 04:16:37;;;;;;;18.85;3.25;;;;;;;;;;4976959;28;20034;-92
2022/10/02 04:19:06;;;;;;;23.35;4.15;;;;;;;;;;4968757;28;20027;-92
2022/10/02 04:21:43;;;;;;;16.48;3.05;;;;;;;;;;4967671;28;20034;-92
2022/10/02 04:24:26;;;;;;;29.08;2.70;;;;;;;;;;4970106;28;20034;-92
2022/10/02 04:27:13;;;;;;;14.45;2.53;;;;;;;;;;4964763;28;20034;-92
2022/10/02 04:29:44;;;;;;;21.02;3.70;;;;;;;;;;4963461;28;20391;-92
2022/10/02 04:32:15;;;;;;;16.80;2.53;;;;;;;;;;4982801;28;20050;-93
2022/10/02 04:34:41;;;;;;;10.35;1.67;;;;;;;;;;4963676;28;20141;-93
2022/10/02 04:37:13;;;;;;;14.55;2.75;;;;;;;;;;4967901;28;20089;-92
2022/10/02 04:40:09;;;;;;;25.63;2.83;;;;;;;;;;4960885;28;20030;-92
2022/10/02 04:42:38;;;;;;;24.15;2.78;;;;;;;;;;4928900;28;20078;-92
2022/10/02 04:45:25;;;;;;;17.48;2.78;;;;;;;;;;4967055;28;20033;-93
2022/10/02 04:48:08;;;;;;;21.02;2.80;;;;;;;;;;4982470;28;20097;-92
2022/10/02 04:50:50;;;;;;;20.70;2.97;;;;;;;;;;4963457;28;20398;-92
2022/10/02 04:53:25;;;;;;;23.48;2.72;;;;;;;;;;4962573;28;20508;-93
2022/10/02 04:55:59;;;;;;;18.60;2.58;;;;;;;;;;4961988;28;20030;-92
2022/10/02 04:58:38;;;;;;;23.77;2.42;;;;;;;;;;4962552;28;20082;-93
2022/10/02 05:01:16;;;;;;;19.33;2.85;;;;;;;;;;4978521;28;20683;-93
2022/10/02 05:03:45;;;;;;;20.13;2.53;;;;;;;;;;4961391;28;20117;-92
2022/10/02 05:06:22;;;;;;;15.23;2.17;;;;;;;;;;4964931;28;20026;-93
2022/10/02 05:09:06;;;;;;;17.17;2.28;;;;;;;;;;4962816;28;20034;-92
2022/10/02 05:11:35;;;;;;;16.75;2.75;;;;;;;;;;4961688;28;20049;-92
2022/10/02 05:14:21;;;;;;;16.50;2.40;;;;;;;;;;4969113;28;20058;-92
2022/10/02 05:16:56;;;;;;;28.40;2.30;;;;;;;;;;4964387;28;20244;-92
2022/10/02 05:19:22;;;;;;;20.50;2.70;;;;;;;;;;4966624;28;20070;-92
2022/10/02 05:21:48;;;;;;;12.68;2.63;;;;;;;;;;4980944;28;20076;-93
2022/10/02 05:24:27;;;;;;;31.13;3.05;;;;;;;;;;4966250;28;20030;-92
2022/10/02 05:26:56;;;;;;;20.02;3.55;;;;;;;;;;4970595;28;20026;-91
2022/10/02 05:29:33;;;;;;;14.25;2.60;;;;;;;;;;4968221;28;20802;-91
2022/10/02 05:32:09;;;;;;;21.77;2.50;;;;;;;;;;4975890;28;20046;-91
2022/10/02 05:34:36;;;;;;;;;;;;;;;;;;4984445;28;20208;-92
2022/10/02 05:37:05;;;;;;;18.92;2.95;;;;;;;;;;4974979;28;19914;-91
2022/10/02 05:39:33;;;;;;;20.63;3.75;;;;;;;;;;4996552;28;20037;-92
2022/10/02 05:42:06;;;;;;;18.45;2.72;;;;;;;;;;4980291;28;20050;-91
2022/10/02 05:44:36;;;;;;;14.07;2.53;;;;;;;;;;4981084;28;20040;-91
2022/10/02 05:47:08;;;;;;;20.80;2.92;;;;;;;;;;4985282;28;20014;-91
2022/10/02 05:49:37;;;;;;;16.92;2.55;;;;;;;;;;4972048;28;20094;-91
2022/10/02 05:52:16;;;;;;;20.70;2.65;;;;;;;;;;4976481;28;20038;-91
2022/10/02 05:54:57;;;;;;;25.50;2.60;;;;;;;;;;4974008;28;20027;-92
2022/10/02 05:57:32;;;;;;;28.65;3.35;;;;;;;;;;4991872;28;20034;-92
2022/10/02 06:00:07;;;;;;;41.13;3.35;;;;;;;;;;4967027;28;20121;-91
2022/10/02 06:02:33;;;;;;;26.35;3.40;;;;;;;;;;4967808;28;20494;-92
2022/10/02 06:05:21;;;;;;;22.55;2.95;;;;;;;;;;4968128;28;20037;-91
2022/10/02 06:07:51;;;;;;;20.55;2.45;;;;;;;;;;4965489;28;20439;-92
2022/10/02 06:10:18;;;;;;;20.48;2.75;;;;;;;;;;4964111;28;20030;-93
2022/10/02 06:12:56;;;;;;;20.08;3.55;;;;;;;;;;4962859;28;20030;-91
2022/10/02 06:15:27;;;;;;;22.90;3.63;;;;;;;;;;4959172;28;20114;-91
2022/10/02 06:17:55;;;;;;;15.65;2.38;;;;;;;;;;4964622;28;20490;-91
2022/10/02 06:20:21;;;;;;;15.52;2.85;;;;;;;;;;4978100;28;20516;-91
2022/10/02 06:22:50;;;;;;;26.80;3.00;;;;;;;;;;4960653;28;20033;-91
2022/10/02 06:25:23;;;;;;;21.00;2.38;;;;;;;;;;4973619;28;20034;-91
2022/10/02 06:28:07;;;;;;;20.63;2.78;;;;;;;;;;4963991;28;20055;-91
2022/10/02 06:30:36;;;;;;;19.42;2.42;;;;;;;;;;4967447;28;20418;-91
2022/10/02 06:33:02;;;;;;;11.40;2.60;;;;;;;;;;4981564;28;20057;-91
2022/10/02 06:35:43;;;;;;;26.48;3.03;;;;;;;;;;4967361;28;20026;-92
2022/10/02 06:38:28;;;;;;;17.23;2.40;;;;;;;;;;4980594;28;20565;-91
2022/10/02 06:40:57;;;;;;;23.25;2.70;;;;;;;;;;4956511;28;20044;-92
2022/10/02 06:43:42;;;;;;;16.83;2.92;;;;;;;;;;4965177;28;20521;-90
2022/10/02 06:46:11;;;;;;;21.90;2.88;;;;;;;;;;4966115;28;20070;-91
2022/10/02 06:48:47;;;;;;;25.02;3.03;;;;;;;;;;4977714;28;20023;-91
2022/10/02 06:51:34;;;;;;;16.33;2.45;;;;;;;;;;4960090;28;20034;-91
2022/10/02 06:54:03;;;;;;;15.95;2.47;;;;;;;;;;4955885;28;20034;-91
2022/10/02 06:56:30;;;;;;;26.77;2.85;;;;;;;;;;4967041;28;20049;-91
2022/10/02 06:59:23;;;;;;;19.55;3.35;;;;;;;;;;4964632;28;20054;-91
2022/10/02 07:01:57;;;;;;;15.60;2.53;;;;;;;;;;4960960;28;20041;-91
2022/10/02 07:04:32;;;;;;;31.05;3.15;;;;;;;;;;4960534;28;20070;-92
2022/10/02 07:07:05;;;;;;;15.77;2.72;;;;;;;;;;4960612;28;20049;-92
2022/10/02 07:09:37;;;;;;;15.55;2.75;;;;;;;;;;4964980;28;20396;-91
2022/10/02 07:12:03;;;;;;;19.10;3.00;;;;;;;;;;4962081;28;20030;-90
2022/10/02 07:14:49;;;;;;;22.45;3.03;;;;;;;;;;4959039;28;20081;-90
2022/10/02 07:17:15;;;;;;;;;;;;;;;;;;4964317;28;20022;-91
2022/10/02 07:19:41;;;;;;;27.50;4.65;;;;;;;;;;4962507;28;19936;-91
2022/10/02 07:22:24;;;;;;;24.58;3.72;;;;;;;;;;4964897;28;20034;-90
2022/10/02 07:25:06;;;;;;;26.48;3.03;;;;;;;;;;4978238;28;20045;-91
2022/10/02 07:27:42;;;;;;;19.30;2.72;;;;;;;;;;4980748;28;20030;-90
2022/10/02 07:30:12;;;;;;;16.27;2.85;;;;;;;;;;4977550;28;20022;-90
2022/10/02 07:32:44;;;;;;;22.00;2.92;;;;;;;;;;4979019;28;20150;-90
2022/10/02 07:35:31;;;;;;;32.80;3.72;;;;;;;;;;4964940;28;20086;-91
2022/10/02 07:38:00;;;;;;;30.92;3.35;;;;;;;;;;4962634;28;20125;-91
2022/10/02 07:40:31;;;;;;;19.65;3.35;;;;;;;;;;4984154;28;20038;-91
2022/10/02 07:43:03;;;;;;;21.17;3.42;;;;;;;;;;4968687;28;20030;-92
2022/10/02 07:45:33;;;;;;;24.67;3.42;;;;;;;;;;4966087;28;20026;-91
2022/10/02 07:48:19;;;;;;;16.77;4.35;;;;;;;;;;4969067;28;20530;-91
2022/10/02 07:50:57;;;;;;;16.75;2.40;;;;;;;;;;4960984;28;20627;-92
2022/10/02 07:53:29;;;;;;;23.15;3.53;;;;;;;;;;4974916;28;20030;-90
2022/10/02 07:55:56;;;;;;;20.60;3.58;;;;;;;;;;4981119;28;20042;-91
2022/10/02 07:58:30;;;;;;;21.85;2.40;;;;;;;;;;4966900;28;20479;-91
2022/10/02 08:01:07;;;;;;;13.20;2.50;;;;;;;;;;4980121;28;20022;-90
2022/10/02 08:03:40;;;;;;;15.50;3.20;;;;;;;;;;4962470;28;20038;-91
2022/10/02 08:06:06;;;;;;;19.27;2.70;;;;;;;;;;4970893;28;20496;-91
2022/10/02 08:08:42;;;;;;;24.30;3.42;;;;;;;;;;4964943;28;20033;-91
2022/10/02 08:11:08;;;;;;;;;;;;;;;;;;4979357;28;20117;-90
2022/10/02 08:13:40;;;;;;;34.22;3.05;;;;;;;;;;4967942;28;20429;-91
2022/10/02 08:16:07;;;;;;;12.73;2.80;;;;;;;;;;4984775;28;20494;-91
2022/10/02 08:18:38;;;;;;;20.00;2.88;;;;;;;;;;4966564;28;20034;-91
2022/10/02 08:21:09;;;;;;;10.90;1.73;;;;;;;;;;4973304;28;20106;-91
2022/10/02 08:23:39;;;;;;;15.30;2.60;;;;;;;;;;4983438;28;20462;-92
2022/10/02 08:26:17;;;;;;;21.73;2.67;;;;;;;;;;4967550;28;20022;-91
2022/10/02 08:28:46;;;;;;;6.18;1.63;;;;;;;;;;4959986;28;20038;-91
2022/10/02 08:31:13;;;;;;;11.18;2.33;;;;;;;;;;4976591;28;20065;-91
2022/10/02 08:33:39;;;;;;;8.27;2.10;;;;;;;;;;4982762;28;20046;-92
2022/10/02 08:36:24;;;;;;;11.52;2.08;;;;;;;;;;4947396;28;20043;-91
2022/10/02 08:39:05;;;;;;;9.18;2.33;;;;;;;;;;4980672;28;20454;-92
2022/10/02 08:41:35;;;;;;;22.13;3.10;;;;;;;;;;4970282;28;20065;-92
2022/10/02 08:44:07;;;;;;;16.98;2.63;;;;;;;;;;4971665;28;20422;-91
2022/10/02 08:46:40;;;;;;;18.17;3.03;;;;;;;;;;4975829;28;20157;-91
2022/10/02 08:49:21;;;;;;;12.93;3.97;;;;;;;;;;4966350;28;20621;-91
2022/10/02 08:51:50;;;;;;;12.52;2.60;;;;;;;;;;4962043;28;20037;-92
2022/10/02 08:54:35;;;;;;;16.95;2.60;;;;;;;;;;4967019;28;20031;-92
2022/10/02 08:57:20;;;;;;;16.60;3.50;;;;;;;;;;4967393;28;20445;-91
2022/10/02 08:59:46;;;;;;;32.60;3.42;;;;;;;;;;4959457;28;20035;-91
2022/10/02 09:02:12;;;;;;;15.15;2.88;;;;;;;;;;4979246;28;20385;-90
2022/10/02 09:05:05;;;;;;;16.98;2.38;;;;;;;;;;4965272;28;20026;-91
2022/10/02 09:07:47;;;;;;;14.02;2.17;;;;;;;;;;4962397;28;20129;-90
2022/10/02 09:10:28;;;;;;;14.15;2.95;;;;;;;;;;4964678;28;20668;-91
2022/10/02 09:13:13;;;;;;;19.27;5.03;;;;;;;;;;4984419;28;20500;-91
2022/10/02 09:15:45;;;;;;;16.98;2.80;;;;;;;;;;4978893;28;20035;-91
2022/10/02 09:18:17;;;;;;;19.63;2.72;;;;;;;;;;4963737;28;20128;-91
2022/10/02 09:21:02;;;;;;;16.35;2.63;;;;;;;;;;4989755;28;20529;-91
2022/10/02 09:23:40;;;;;;;12.38;2.40;;;;;;;;;;4979896;28;20478;-92
2022/10/02 09:26:17;;;;;;;16.67;3.60;;;;;;;;;;4984959;28;20029;-91
2022/10/02 09:29:10;;;;;;;9.13;2.45;;;;;;;;;;4968869;28;20537;-92
2022/10/02 09:31:55;;;;;;;11.60;3.20;;;;;;;;;;4963165;28;20034;-92
2022/10/02 09:34:24;;;;;;;7.40;3.13;;;;;;;;;;4948774;28;20498;-91
2022/10/02 09:37:15;;;;;;;13.80;3.13;;;;;;;;;;4950726;28;20026;-91
2022/10/02 09:39:59;;;;;;;8.43;2.53;;;;;;;;;;4948730;28;20023;-91
2022/10/02 09:42:34;;;;;;;10.82;3.53;;;;;;;;;;4966567;28;20358;-92
2022/10/02 09:45:20;;;;;;;5.93;2.13;;;;;;;;;;4961310;28;20031;-91
2022/10/02 09:47:51;;;;;;;6.10;2.53;;;;;;;;;;4946956;28;20037;-91
2022/10/02 09:50:29;;;;;;;12.00;2.70;;;;;;;;;;4950578;28;20071;-91
2022/10/02 09:53:13;;;;;;;8.00;2.97;;;;;;;;;;4951005;28;20095;-92
2022/10/02 09:55:54;;;;;;;10.80;2.85;;;;;;;;;;4951647;28;20062;-91
2022/10/02 09:58:23;;;;;;;11.82;3.17;;;;;;;;;;4965117;28;20086;-91
2022/10/02 10:01:08;;;;;;;17.15;3.05;;;;;;;;;;4950226;28;20023;-91
2022/10/02 10:04:11;;;;;;;15.90;3.03;;;;;;;;;;4963654;28;20768;-92
2022/10/02 10:06:56;;;;;;;18.83;3.30;;;;;;;;;;4876091;29;20037;-90
2022/10/02 10:09:33;;;;;;;20.58;3.42;;;;;;;;;;4966290;28;20282;-90
2022/10/02 10:12:18;;;;;;;19.48;2.65;;;;;;;;;;4966340;28;20483;-90
2022/10/02 10:14:56;;;;;;;16.42;2.90;;;;;;;;;;4952319;28;20439;-90
2022/10/02 10:17:29;;;;;;;14.85;2.60;;;;;;;;;;4957494;28;20117;-88
2022/10/02 10:20:11;;;;;;;11.35;2.70;;;;;;;;;;4952362;28;20038;-89
2022/10/02 10:22:50;;;;;;;18.48;2.85;;;;;;;;;;4949741;28;20026;-89
2022/10/02 10:25:34;;;;;;;27.52;3.47;;;;;;;;;;4970826;28;20046;-90
2022/10/02 10:28:04;;;;;;;20.90;3.95;;;;;;;;;;4974722;28;20018;-91
2022/10/02 10:30:33;;;;;;;17.85;2.47;;;;;;;;;;4969329;28;20033;-91
2022/10/02 10:33:25;;;;;;;15.55;3.65;;;;;;;;;;4958289;28;20530;-90
2022/10/02 10:35:52;;;;;;;24.45;3.17;;;;;;;;;;4963273;28;20042;-90
2022/10/02 10:38:33;;;;;;;27.00;3.30;;;;;;;;;;4969095;28;20069;-92
2022/10/02 10:40:59;;;;;;;25.63;4.10;;;;;;;;;;4976031;28;20681;-90
2022/10/02 10:43:40;;;;;;;20.33;3.67;;;;;;;;;;4968257;28;20114;-91
2022/10/02 10:46:06;;;;;;;17.30;3.15;;;;;;;;;;4965339;28;20031;-91
2022/10/02 10:48:32;;;;;;;19.05;2.25;;;;;;;;;;4966317;28;20038;-92
2022/10/02 10:51:15;;;;;;;16.98;2.63;;;;;;;;;;4967266;28;20023;-91
2022/10/02 10:53:47;;;;;;;11.77;2.45;;;;;;;;;;4968026;28;20122;-91
2022/10/02 10:56:20;;;;;;;14.70;2.70;;;;;;;;;;4967854;28;20499;-91
2022/10/02 10:58:55;;;;;;;17.92;2.97;;;;;;;;;;4964760;28;20049;-91
2022/10/02 11:01:37;;;;;;;24.10;3.72;;;;;;;;;;4967293;28;20030;-91
2022/10/02 11:04:15;;;;;;;12.98;3.42;;;;;;;;;;4962896;28;20031;-91
2022/10/02 11:06:57;;;;;;;28.27;2.92;;;;;;;;;;4964819;28;20042;-91
2022/10/02 11:09:49;;;;;;;17.05;2.65;;;;;;;;;;4966505;28;20514;-90
2022/10/02 11:12:15;;;;;;;12.73;3.33;;;;;;;;;;4981858;28;20038;-92
2022/10/02 11:14:46;;;;;;;14.70;2.60;;;;;;;;;;4969841;28;20022;-92
2022/10/02 11:17:18;;;;;;;14.70;3.13;;;;;;;;;;4967380;28;20042;-91
2022/10/02 11:19:56;;;;;;;17.92;2.90;;;;;;;;;;4963877;28;20545;-92
2022/10/02 11:22:41;;;;;;;6.82;2.47;;;;;;;;;;4957727;28;20038;-92
2022/10/02 11:25:13;;;;;;;17.98;3.45;;;;;;;;;;4965216;28;20565;-92
2022/10/02 11:27:49;;;;;;;13.38;3.90;;;;;;;;;;4977151;28;20487;-92
2022/10/02 11:30:21;;;;;;;13.32;4.43;;;;;;;;;;4980921;28;20464;-89
2022/10/02 11:33:02;;;;;;;11.15;2.67;;;;;;;;;;4969535;28;20702;-88
2022/10/02 11:35:55;;;;;;;10.95;2.67;;;;;;;;;;4943732;28;20031;-89
2022/10/02 11:38:41;;;;;;;12.40;3.00;;;;;;;;;;4947155;28;20581;-92
2022/10/02 11:41:07;;;;;;;7.95;2.30;;;;;;;;;;4957525;28;20035;-91
2022/10/02 11:43:33;;;;;;;14.15;3.35;;;;;;;;;;4968519;28;20027;-91
2022/10/02 11:46:13;;;;;;;16.27;3.83;;;;;;;;;;4946096;28;20023;-92
2022/10/02 11:48:39;;;;;;;16.50;2.80;;;;;;;;;;4951605;28;20137;-91
2022/10/02 11:51:09;;;;;;;12.02;2.55;;;;;;;;;;4945928;28;20079;-91
2022/10/02 11:53:47;;;;;;;13.70;3.25;;;;;;;;;;4949368;28;20041;-93
2022/10/02 11:56:22;;;;;;;11.45;3.38;;;;;;;;;;4952094;28;20030;-92
2022/10/02 11:58:54;;;;;;;11.60;2.42;;;;;;;;;;4950626;28;20147;-91
2022/10/02 12:01:34;;;;;;;12.10;2.58;;;;;;;;;;4951827;28;20050;-90
2022/10/02 12:04:08;;;;;;;10.10;2.13;;;;;;;;;;4949555;28;20026;-90
2022/10/02 12:06:39;;;;;;;12.20;2.38;;;;;;;;;;4948951;28;20121;-90
2022/10/02 12:09:22;;;;;;;13.18;2.63;;;;;;;;;;4949424;28;20023;-90
2022/10/02 12:11:56;;;;;;;12.23;2.35;;;;;;;;;;4950252;28;20105;-90
2022/10/02 12:14:33;;;;;;;13.13;3.40;;;;;;;;;;4944994;28;20565;-89
2022/10/02 12:16:59;;;;;;;16.05;2.97;;;;;;;;;;4946442;28;20428;-90
2022/10/02 12:19:25;;;;;;;12.43;2.60;;;;;;;;;;4951177;28;20031;-90
2022/10/02 12:27:45;;;;;;;16.27;2.47;;;;;;;;;;4962608;28;20479;-90
2022/10/02 12:30:34;;;;;;;17.27;3.47;;;;;;;;;;4950838;28;20042;-89
2022/10/02 12:33:07;;;;;;;12.60;2.17;;;;;;;;;;4949922;28;20062;-90
2022/10/02 12:35:33;;;;;;;12.63;2.85;;;;;;;;;;4967533;28;20248;-90
2022/10/02 12:38:11;;;;;;;14.63;2.80;;;;;;;;;;4969123;28;20524;-90
2022/10/02 12:40:46;;;;;;;10.05;2.42;;;;;;;;;;4980115;28;20054;-90
2022/10/02 12:43:31;;;;;;;16.42;2.72;;;;;;;;;;4967624;28;20044;-90
2022/10/02 12:45:57;;;;;;;11.70;2.53;;;;;;;;;;4966745;28;20030;-90
2022/10/02 12:48:44;;;;;;;13.85;2.55;;;;;;;;;;4969073;28;20054;-90
2022/10/02 12:51:26;;;;;;;12.57;2.60;;;;;;;;;;4986260;28;20039;-90
2022/10/02 12:53:55;;;;;;;11.98;3.20;;;;;;;;;;4971652;28;20026;-90
2022/10/02 12:56:33;;;;;;;10.98;2.80;;;;;;;;;;4973896;28;20085;-90
2022/10/02 12:59:06;;;;;;;14.57;2.47;;;;;;;;;;4975405;28;20479;-90
2022/10/02 13:01:53;;;;;;;14.65;3.05;;;;;;;;;;4975386;28;20030;-90
2022/10/02 13:04:37;;;;;;;12.00;2.42;;;;;;;;;;4984018;28;20030;-90
2022/10/02 13:07:25;;;;;;;12.38;3.08;;;;;;;;;;4970463;28;20093;-90
2022/10/02 13:09:51;;;;;;;17.05;2.25;;;;;;;;;;4983415;28;20038;-90
2022/10/02 13:12:36;;;;;;;16.48;2.40;;;;;;;;;;4967703;28;20033;-90
2022/10/02 13:15:18;;;;;;;16.27;2.92;;;;;;;;;;4981987;28;21706;-89
2022/10/02 13:18:03;;;;;;;14.90;4.20;;;;;;;;;;4973813;28;20442;-90
2022/10/02 13:20:40;;;;;;;18.80;2.97;;;;;;;;;;4965728;28;20035;-90
2022/10/02 13:23:29;;;;;;;22.25;5.25;;;;;;;;;;4976138;28;20027;-90
2022/10/02 13:26:02;;;;;;;9.43;1.83;;;;;;;;;;4973087;28;20064;-90
2022/10/02 13:28:48;;;;;;;11.60;1.92;;;;;;;;;;4969539;28;20517;-89
2022/10/02 13:31:35;;;;;;;16.73;2.72;;;;;;;;;;4965954;28;20035;-87
2022/10/02 13:34:16;;;;;;;17.52;2.75;;;;;;;;;;4977307;28;20117;-88
2022/10/02 13:37:05;;;;;;;12.48;2.20;;;;;;;;;;4982121;28;20117;-87
2022/10/02 13:39:32;;;;;;;13.00;2.45;;;;;;;;;;4949667;28;20568;-87
2022/10/02 13:42:07;;;;;;;16.00;2.35;;;;;;;;;;4967342;28;20122;-88
2022/10/02 13:44:35;;;;;;;13.88;3.58;;;;;;;;;;4966476;28;20469;-88
2022/10/02 13:47:21;;;;;;;17.77;2.65;;;;;;;;;;4966337;28;20125;-88
2022/10/02 13:49:47;;;;;;;;;;;;;;;;;;4979610;28;20098;-87
2022/10/02 13:52:19;;;;;;;7.82;1.95;;;;;;;;;;4963177;28;19917;-87
2022/10/02 13:55:04;;;;;;;14.27;2.47;;;;;;;;;;4962700;28;20041;-86
2022/10/02 13:57:36;;;;;;;21.88;2.80;;;;;;;;;;4977926;28;20164;-87
2022/10/02 14:00:21;;;;;;;16.52;2.72;;;;;;;;;;4964257;28;20386;-87
2022/10/02 14:02:50;;;;;;;12.00;2.50;;;;;;;;;;4976541;28;20844;-87
2022/10/02 14:05:34;;;;;;;19.10;3.05;;;;;;;;;;4962471;28;20113;-87
2022/10/02 14:08:07;;;;;;;17.70;3.10;;;;;;;;;;4965426;28;20030;-87
2022/10/02 14:10:39;;;;;;;19.13;2.72;;;;;;;;;;4975696;28;20387;-87
2022/10/02 14:13:27;;;;;;;15.40;2.70;;;;;;;;;;4966080;28;20397;-89
2022/10/02 14:16:08;;;;;;;10.70;2.67;;;;;;;;;;4962988;28;20034;-89
2022/10/02 14:19:02;;;;;;;11.02;2.33;;;;;;;;;;4964846;28;20058;-88
2022/10/02 14:21:34;;;;;;;15.73;2.72;;;;;;;;;;4943765;28;20031;-87
2022/10/02 14:24:06;;;;;;;16.35;2.58;;;;;;;;;;4975261;28;20058;-88
2022/10/02 14:26:38;;;;;;;19.13;2.80;;;;;;;;;;4980805;28;20038;-88
2022/10/02 14:29:23;;;;;;;14.85;2.47;;;;;;;;;;4959972;28;20298;-87
2022/10/02 14:31:49;;;;;;;14.27;3.10;;;;;;;;;;4963128;28;20026;-87
2022/10/02 14:34:34;;;;;;;14.10;2.70;;;;;;;;;;4965096;28;20042;-88
2022/10/02 14:37:19;;;;;;;14.80;2.33;;;;;;;;;;4969654;28;20057;-88
2022/10/02 14:39:45;;;;;;;11.38;2.50;;;;;;;;;;4980726;28;20022;-88
2022/10/02 14:42:20;;;;;;;14.90;3.38;;;;;;;;;;4966568;28;20038;-87
2022/10/02 14:45:02;;;;;;;11.55;2.58;;;;;;;;;;4962746;28;20027;-88
2022/10/02 14:47:47;;;;;;;16.08;1.95;;;;;;;;;;4976973;28;20043;-88
2022/10/02 14:50:16;;;;;;;13.82;2.92;;;;;;;;;;4964400;28;20495;-88
2022/10/02 14:52:42;;;;;;;13.88;2.40;;;;;;;;;;4963415;28;20434;-87
2022/10/02 14:55:11;;;;;;;14.55;2.20;;;;;;;;;;4962612;28;20372;-87
2022/10/02 14:58:03;;;;;;;20.52;2.97;;;;;;;;;;4964231;28;20486;-88
2022/10/02 15:00:39;;;;;;;15.68;2.85;;;;;;;;;;4976210;28;20030;-89
2022/10/02 15:03:15;;;;;;;27.40;2.50;;;;;;;;;;4967720;28;20022;-88
2022/10/02 15:05:41;;;;;;;13.25;2.85;;;;;;;;;;4963753;28;20451;-88
2022/10/02 15:08:19;;;;;;;12.63;3.28;;;;;;;;;;4968429;28;20031;-88
2022/10/02 15:10:48;;;;;;;17.42;3.22;;;;;;;;;;4976977;28;20125;-88
2022/10/02 15:13:27;;;;;;;10.63;2.35;;;;;;;;;;4965334;28;20094;-87
2022/10/02 15:18:59;;;;;;;17.95;2.63;;;;;;;;;;4985713;28;20045;-88
2022/10/02 15:21:32;;;;;;;21.63;3.25;;;;;;;;;;4975147;28;20045;-86
2022/10/02 15:23:58;;;;;;;16.10;2.58;;;;;;;;;;4967422;28;20022;-89
2022/10/02 15:26:43;;;;;;;13.50;3.03;;;;;;;;;;4967455;28;20515;-88
2022/10/02 15:29:32;;;;;;;14.57;2.67;;;;;;;;;;4981907;28;20030;-87